LPHR/HOR METAR and TAF weather

Enter ICAO airport designator
Station Type Date Time Source
LPHR METAR 2019/02/20 21:00 UTC NOAA

LPHR 202100Z 26011KT 9999 SCT014 FEW016TCU SCT030 BKN070 15/08 Q0997


Station Type Date Time Source
LPHR Decoded METAR 2019/02/20 21:00 UTC NOAA

Horta / Castelo Branco Acores , Portugal (LPHR) 38-31N 028-43W 41M
Feb 20, 2019 - 04:00 PM EST / 2019.02.20 2100 UTC
Wind: from the W (260 degrees) at 13 MPH (11 KT):0
Visibility: greater than 7 mile(s):0
Sky conditions: mostly cloudy
Weather: Towering cumulus clouds observed
Temperature: 59 F (15 C)
Dew Point: 46 F (8 C)
Relative Humidity: 62%
Pressure (altimeter): 29.44 in. Hg (0997 hPa)
ob: LPHR 202100Z 26011KT 9999 SCT014 FEW016TCU SCT030 BKN070 15/08 Q0997
cycle: 21

Station Type Date Time Source
LPHR TAF 2018/09/06 09:00 UTC NOAA

TAF LPHR 060800Z 0609/0618 12010KT 9999 SCT018 SCT040 PROB30
TEMPO 0609/0618 5000 SHRA BKN015 FEW018CB
BECMG 0610/0612 18010KT


Example: see airport list